Terminal Aerodrome Forecast
Issued by NWS

Home | Current Version | Previous Version | Text Only | Print | Product List | Glossary Off
Versions: 1 2 3 4 5 6 7 8 9 10 11 12 13 14 15 16 17 18 19 20 21 22 23

000
FTUS41 KCLE 241300 AAA
TAFFDY
TAF AMD
KFDY 241350Z 2414/2512 07004KT 5SM BR SCT006 BKN035
     FM241530 07007KT 6SM BR BKN006
     FM241700 07007KT P6SM BKN015
     FM241800 07007KT P6SM BKN035
     FM250000 09005KT P6SM SCT250
     FM250900 12003KT 3SM BR SCT080=

USA.gov is the U.S. government's official web portal to all federal, state and local government web resources and services.